Time;durP1;ratioP1;P1;durP2;ratioP2;P2;SDS_P1;SDS_P2;PMS_P1;PMS_P2;Temp;Humidity;BMP_temperature;BMP_pressure;BME280_temperature;BME280_humidity;BME280_pressure;Samples;Min_cycle;Max_cycle;Signal;HPM_P1;HPM_P2
2022/05/22 00:00:55;;;;;;;10.90;6.10;;;23.20;99.90;;;;;;5050067;28;20474;-68
2022/05/22 00:03:22;;;;;;;7.70;5.73;;;23.10;99.90;;;;;;5049936;28;20804;-67
2022/05/22 00:05:49;;;;;;;7.43;6.10;;;23.00;99.90;;;;;;5050113;28;20907;-67
2022/05/22 00:08:16;;;;;;;7.47;5.73;;;23.00;99.90;;;;;;5050178;28;20450;-68
2022/05/22 00:10:43;;;;;;;11.23;6.17;;;23.10;99.90;;;;;;5049764;28;20576;-69
2022/05/22 00:13:11;;;;;;;9.40;7.13;;;23.00;99.90;;;;;;5050025;28;20469;-69
2022/05/22 00:16:36;;;;;;;7.77;6.03;;;23.00;99.90;;;;;;5049771;28;20454;-68
2022/05/22 00:18:25;;;;;;;8.23;5.50;;;23.00;99.90;;;;;;5049557;28;20449;-67
2022/05/22 00:20:53;;;;;;;7.17;5.73;;;23.00;99.90;;;;;;5049048;28;20855;-68
2022/05/22 00:23:20;;;;;;;12.03;6.57;;;23.00;99.90;;;;;;5049859;28;20793;-69
2022/05/22 00:25:47;;;;;;;14.13;6.33;;;22.90;99.90;;;;;;5049509;28;20462;-69
2022/05/22 00:28:15;;;;;;;9.23;6.73;;;22.80;99.90;;;;;;5049720;28;20548;-69
2022/05/22 00:30:42;;;;;;;6.73;5.83;;;22.80;99.90;;;;;;5049398;28;20854;-67
2022/05/22 00:33:09;;;;;;;8.43;6.07;;;22.90;99.90;;;;;;5049782;28;20461;-67
2022/05/22 00:35:37;;;;;;;11.90;6.00;;;22.80;99.90;;;;;;5049630;28;20454;-68
2022/05/22 00:38:04;;;;;;;7.67;6.70;;;22.80;99.90;;;;;;5049234;28;20458;-67
2022/05/22 00:40:31;;;;;;;9.30;6.00;;;22.80;99.90;;;;;;5049055;28;20931;-69
2022/05/22 00:42:58;;;;;;;10.50;6.20;;;22.80;99.90;;;;;;5049118;28;20493;-67
2022/05/22 00:45:27;;;;;;;7.90;5.90;;;22.90;99.90;;;;;;5049462;28;20458;-68
2022/05/22 00:47:54;;;;;;;7.30;5.73;;;22.80;99.90;;;;;;5049523;28;20446;-68
2022/05/22 00:50:22;;;;;;;7.60;5.73;;;22.70;99.90;;;;;;5049256;28;20493;-67
2022/05/22 00:52:54;;;;;;;10.60;5.90;;;22.80;99.90;;;;;;5048995;28;20993;-67
2022/05/22 00:55:25;;;;;;;8.43;5.97;;;22.70;99.90;;;;;;5049339;28;20485;-69
2022/05/22 00:57:55;;;;;;;6.60;5.40;;;22.80;99.90;;;;;;5049393;28;20449;-68
2022/05/22 01:00:29;;;;;;;8.60;5.63;;;22.80;99.90;;;;;;5049444;28;20502;-69
2022/05/22 01:05:43;;;;;;;9.87;5.90;;;22.70;99.90;;;;;;5049243;28;20799;-68
2022/05/22 01:08:10;;;;;;;8.03;6.00;;;22.70;99.90;;;;;;5049148;28;20797;-67
2022/05/22 01:10:41;;;;;;;9.00;5.33;;;22.70;99.90;;;;;;5048709;28;20997;-67
2022/05/22 01:13:09;;;;;;;8.10;6.37;;;22.70;99.90;;;;;;5049393;28;20454;-68
2022/05/22 01:15:38;;;;;;;10.13;5.83;;;22.70;99.90;;;;;;5048977;28;20933;-68
2022/05/22 01:18:05;;;;;;;7.07;5.43;;;22.60;99.90;;;;;;5049299;28;20454;-68
2022/05/22 01:20:32;;;;;;;8.03;5.83;;;22.60;99.90;;;;;;5049189;28;20454;-70
2022/05/22 01:23:01;;;;;;;7.43;5.00;;;22.60;99.90;;;;;;5049263;28;20458;-69
2022/05/22 01:25:28;;;;;;;8.33;5.63;;;22.60;99.90;;;;;;5049392;28;20449;-69
2022/05/22 01:27:55;;;;;;;8.00;6.00;;;22.60;99.90;;;;;;5049140;28;20458;-69
2022/05/22 01:30:26;;;;;;;7.43;5.70;;;22.60;99.90;;;;;;5048940;28;20485;-68
2022/05/22 01:32:53;;;;;;;7.63;5.43;;;22.60;99.90;;;;;;5052525;28;20470;-68
2022/05/22 01:35:23;;;;;;;11.60;6.00;;;22.70;99.90;;;;;;5052317;28;20454;-69
2022/05/22 01:37:51;;;;;;;10.23;5.47;;;22.70;99.90;;;;;;5052754;28;20671;-68
2022/05/22 01:40:20;;;;;;;7.67;5.73;;;22.70;99.90;;;;;;5052548;28;20457;-69
2022/05/22 01:42:47;;;;;;;8.07;5.00;;;22.70;99.90;;;;;;5052204;28;20493;-70
2022/05/22 01:45:17;;;;;;;6.73;4.77;;;22.70;99.90;;;;;;5052620;28;20457;-69
2022/05/22 01:47:44;;;;;;;7.40;5.90;;;22.60;99.90;;;;;;5052626;28;20476;-69
2022/05/22 01:50:12;;;;;;;7.10;5.63;;;22.60;99.90;;;;;;5052516;28;20480;-67
2022/05/22 01:52:40;;;;;;;7.47;5.13;;;22.60;99.90;;;;;;5052368;28;20946;-67
2022/05/22 01:55:10;;;;;;;6.77;4.80;;;22.60;99.90;;;;;;5051955;28;20457;-69
2022/05/22 01:57:39;;;;;;;7.70;4.60;;;22.50;99.90;;;;;;5052378;28;20568;-69
2022/05/22 02:00:09;;;;;;;6.73;4.30;;;22.60;99.90;;;;;;5052386;28;20926;-68
2022/05/22 02:02:36;;;;;;;7.87;4.30;;;22.60;99.90;;;;;;5052391;28;20486;-67
2022/05/22 02:05:04;;;;;;;6.63;4.20;;;22.50;99.90;;;;;;5052621;28;20462;-68
2022/05/22 02:10:16;;;;;;;6.40;4.50;;;22.40;99.90;;;;;;5051943;28;21027;-67
2022/05/22 02:12:44;;;;;;;6.03;4.27;;;22.40;99.90;;;;;;5051845;28;21004;-68
2022/05/22 02:15:12;;;;;;;6.37;3.97;;;22.30;99.90;;;;;;5051587;28;20454;-67
2022/05/22 02:17:39;;;;;;;8.00;4.57;;;22.40;99.90;;;;;;5051996;28;20441;-67
2022/05/22 02:20:07;;;;;;;8.03;3.50;;;22.40;99.90;;;;;;5051789;28;20449;-66
2022/05/22 02:22:40;;;;;;;6.80;3.50;;;22.40;99.90;;;;;;5051470;28;21004;-68
2022/05/22 02:25:08;;;;;;;5.30;4.00;;;22.40;99.90;;;;;;5051871;28;20507;-68
2022/05/22 02:27:35;;;;;;;4.93;3.00;;;22.40;99.90;;;;;;5051809;28;20988;-68
2022/05/22 02:30:06;;;;;;;6.43;3.90;;;22.40;99.60;;;;;;5051723;28;20450;-67
2022/05/22 02:32:34;;;;;;;8.40;3.27;;;22.30;98.70;;;;;;5051769;28;20501;-69
2022/05/22 02:35:01;;;;;;;7.87;3.60;;;22.40;98.40;;;;;;5051542;28;20575;-67
2022/05/22 02:37:28;;;;;;;5.83;3.57;;;22.50;97.80;;;;;;5051139;28;20446;-66
2022/05/22 02:39:57;;;;;;;11.70;3.40;;;22.40;97.10;;;;;;5051212;28;20457;-68
2022/05/22 02:42:24;;;;;;;5.37;3.40;;;22.50;96.50;;;;;;5050438;28;20492;-68
2022/05/22 02:44:51;;;;;;;5.63;2.97;;;22.40;95.80;;;;;;5051267;28;20458;-68
2022/05/22 02:47:20;;;;;;;5.47;3.00;;;22.40;95.30;;;;;;5051149;28;20805;-68
2022/05/22 02:49:47;;;;;;;4.87;3.47;;;22.30;94.90;;;;;;5051467;28;20454;-67
2022/05/22 02:52:14;;;;;;;7.83;3.10;;;22.40;94.40;;;;;;5051071;28;20494;-69
2022/05/22 02:54:41;;;;;;;5.93;3.00;;;22.30;93.60;;;;;;5051210;28;20457;-68
2022/05/22 02:57:08;;;;;;;5.10;3.30;;;22.30;92.30;;;;;;5050852;28;20454;-67
2022/05/22 02:59:35;;;;;;;4.80;2.73;;;22.30;92.60;;;;;;5050670;28;20438;-67
2022/05/22 03:02:03;;;;;;;6.27;2.90;;;22.30;91.90;;;;;;5050819;28;20469;-67
2022/05/22 03:04:32;;;;;;;5.73;3.07;;;22.30;91.70;;;;;;5050895;28;20461;-68
2022/05/22 03:06:59;;;;;;;4.60;2.80;;;22.20;91.20;;;;;;5050883;28;20561;-68
2022/05/22 03:09:26;;;;;;;5.40;2.80;;;22.10;90.90;;;;;;5050862;28;20814;-67
2022/05/22 03:11:54;;;;;;;6.63;3.10;;;22.20;90.80;;;;;;5050765;28;20520;-67
2022/05/22 03:14:21;;;;;;;4.93;2.80;;;22.10;90.00;;;;;;5050706;28;20489;-69
2022/05/22 03:16:48;;;;;;;5.10;2.77;;;22.20;85.90;;;;;;5050744;28;20470;-68
2022/05/22 03:19:15;;;;;;;4.77;2.77;;;22.10;84.30;;;;;;5050757;28;20814;-68
2022/05/22 03:21:44;;;;;;;4.57;2.53;;;22.10;84.60;;;;;;5050725;28;20496;-67
2022/05/22 03:24:11;;;;;;;5.53;2.33;;;22.20;82.20;;;;;;5050827;28;20450;-68
2022/05/22 03:26:38;;;;;;;4.60;2.50;;;22.20;78.80;;;;;;5050596;28;20461;-67
2022/05/22 03:29:06;;;;;;;5.00;2.53;;;22.30;78.30;;;;;;5050523;28;20465;-68
2022/05/22 03:31:33;;;;;;;6.20;2.50;;;22.30;76.20;;;;;;5050373;28;20500;-67
2022/05/22 03:34:00;;;;;;;7.00;2.97;;;22.30;75.90;;;;;;5050416;28;20454;-68
2022/05/22 03:36:27;;;;;;;5.23;2.40;;;22.30;73.70;;;;;;5050523;28;20449;-68
2022/05/22 03:38:55;;;;;;;4.53;1.80;;;22.20;72.80;;;;;;5050511;28;20778;-68
2022/05/22 03:41:23;;;;;;;9.27;2.27;;;22.30;71.10;;;;;;5050102;28;20840;-67
2022/05/22 03:43:51;;;;;;;7.97;2.37;;;22.30;70.90;;;;;;5050123;28;20981;-68
2022/05/22 03:46:21;;;;;;;6.10;2.00;;;22.40;69.60;;;;;;5049955;28;20969;-68
2022/05/22 03:48:48;;;;;;;4.70;2.07;;;22.40;68.20;;;;;;5050154;28;20466;-69
2022/05/22 03:51:15;;;;;;;6.30;2.03;;;22.40;67.30;;;;;;5050089;28;20494;-67
2022/05/22 03:53:42;;;;;;;6.07;1.90;;;22.50;66.80;;;;;;5050178;28;20457;-67
2022/05/22 03:56:13;;;;;;;5.80;2.03;;;22.50;66.20;;;;;;5049841;28;20454;-68
2022/05/22 03:58:40;;;;;;;4.93;2.20;;;22.50;66.30;;;;;;5049758;28;20961;-68
2022/05/22 04:01:07;;;;;;;4.40;1.90;;;22.60;65.20;;;;;;5050006;28;20831;-68
2022/05/22 04:03:35;;;;;;;4.93;1.83;;;22.60;65.70;;;;;;5050025;28;20572;-68
2022/05/22 04:06:02;;;;;;;4.30;1.70;;;22.70;65.00;;;;;;5050019;28;20536;-67
2022/05/22 04:08:30;;;;;;;5.17;2.80;;;22.70;64.60;;;;;;5049878;28;20457;-69
2022/05/22 04:10:58;;;;;;;5.03;1.90;;;22.70;64.80;;;;;;5049785;28;20493;-68
2022/05/22 04:13:26;;;;;;;4.80;1.90;;;22.80;64.80;;;;;;5049848;28;20454;-66
2022/05/22 04:15:53;;;;;;;4.10;2.00;;;22.80;64.30;;;;;;5049736;28;20446;-68
2022/05/22 04:18:20;;;;;;;5.20;2.30;;;22.80;63.30;;;;;;5049965;28;20922;-66
2022/05/22 04:20:47;;;;;;;4.20;1.87;;;22.90;63.30;;;;;;5049273;28;20457;-68
2022/05/22 04:26:00;;;;;;;3.73;1.53;;;22.90;64.10;;;;;;5049784;28;20433;-69
2022/05/22 04:28:30;;;;;;;5.33;1.90;;;22.80;64.00;;;;;;5049796;28;20457;-68
2022/05/22 04:30:57;;;;;;;3.87;2.03;;;22.80;63.40;;;;;;5049577;28;20469;-68
2022/05/22 04:33:25;;;;;;;4.70;1.70;;;22.80;64.00;;;;;;5049718;28;20453;-69
2022/05/22 04:35:53;;;;;;;4.20;1.97;;;22.80;63.60;;;;;;5049811;28;20460;-69
2022/05/22 04:38:20;;;;;;;5.20;1.93;;;22.90;63.20;;;;;;5049302;28;20458;-69
2022/05/22 04:40:54;;;;;;;5.00;2.20;;;22.90;63.30;;;;;;5048892;28;20465;-69
2022/05/22 04:43:21;;;;;;;5.70;2.50;;;22.90;63.90;;;;;;5049949;28;20858;-68
2022/05/22 04:45:51;;;;;;;5.63;1.87;;;22.90;64.10;;;;;;5049662;28;20450;-68
2022/05/22 04:48:18;;;;;;;6.50;2.00;;;23.00;63.50;;;;;;5049030;28;20512;-64
2022/05/22 04:50:46;;;;;;;6.17;1.97;;;23.00;63.60;;;;;;5049009;28;20450;-67
2022/05/22 04:53:14;;;;;;;4.90;1.70;;;22.90;63.60;;;;;;5049476;28;20557;-68
2022/05/22 04:55:42;;;;;;;5.77;1.80;;;22.90;63.00;;;;;;5049412;28;20465;-69
2022/05/22 04:58:09;;;;;;;4.07;1.73;;;22.80;63.70;;;;;;5049469;28;20798;-68
2022/05/22 05:00:36;;;;;;;7.00;1.90;;;22.80;64.10;;;;;;5048993;28;20943;-67
2022/05/22 05:03:05;;;;;;;6.43;1.80;;;22.90;63.90;;;;;;5049225;28;20455;-65
2022/05/22 05:05:33;;;;;;;3.83;1.70;;;22.90;63.80;;;;;;5049371;28;20465;-65
2022/05/22 05:08:00;;;;;;;5.87;1.73;;;23.10;63.60;;;;;;5052825;28;20450;-67
2022/05/22 05:10:27;;;;;;;5.10;1.87;;;23.20;63.00;;;;;;5053369;28;20453;-67
2022/05/22 05:12:55;;;;;;;5.27;1.93;;;23.30;63.20;;;;;;5053058;28;20493;-66
2022/05/22 05:15:23;;;;;;;4.63;1.60;;;23.40;62.80;;;;;;5053063;28;20445;-66
2022/05/22 05:17:50;;;;;;;7.40;2.00;;;23.40;62.40;;;;;;5052840;28;20454;-65
2022/05/22 05:20:23;;;;;;;7.30;1.83;;;23.50;63.40;;;;;;5052849;28;20477;-65
2022/05/22 05:22:50;;;;;;;4.50;1.90;;;23.50;63.90;;;;;;5053111;28;20531;-66
2022/05/22 05:25:17;;;;;;;5.30;2.00;;;23.50;64.40;;;;;;5053050;28;20485;-66
2022/05/22 05:27:45;;;;;;;4.20;1.80;;;23.50;64.60;;;;;;5053069;28;20515;-66
2022/05/22 05:30:14;;;;;;;4.13;2.13;;;23.60;64.80;;;;;;5052681;28;20465;-66
2022/05/22 05:32:41;;;;;;;4.47;2.07;;;23.50;64.60;;;;;;5052342;28;20576;-68
2022/05/22 05:35:12;;;;;;;8.13;2.10;;;23.50;66.20;;;;;;5052861;28;20454;-70
2022/05/22 05:37:40;;;;;;;5.43;2.07;;;23.50;65.60;;;;;;5052871;28;21022;-77
2022/05/22 05:40:09;;;;;;;6.43;1.87;;;23.50;65.80;;;;;;5052519;28;20454;-68
2022/05/22 05:42:37;;;;;;;6.23;2.20;;;23.40;66.50;;;;;;5052304;28;20514;-67
2022/05/22 05:45:05;;;;;;;6.07;2.20;;;23.50;69.40;;;;;;5052451;28;20484;-67
2022/05/22 05:47:32;;;;;;;4.90;2.70;;;23.60;66.80;;;;;;5052538;28;20537;-67
2022/05/22 05:49:59;;;;;;;4.47;2.10;;;23.70;67.70;;;;;;5052597;28;20477;-65
2022/05/22 05:52:26;;;;;;;6.80;1.90;;;23.70;66.40;;;;;;5052378;28;20493;-67
2022/05/22 05:54:55;;;;;;;4.97;1.83;;;23.80;63.90;;;;;;5052314;28;20527;-66
2022/05/22 05:57:22;;;;;;;4.33;1.87;;;23.70;63.10;;;;;;5052295;28;20465;-67
2022/05/22 05:59:52;;;;;;;4.70;2.50;;;23.60;62.90;;;;;;5052295;28;20454;-68
2022/05/22 06:02:19;;;;;;;4.80;1.90;;;23.60;63.70;;;;;;5052316;28;20563;-66
2022/05/22 06:04:46;;;;;;;5.47;2.27;;;23.60;63.60;;;;;;5052269;28;20458;-68
2022/05/22 06:07:13;;;;;;;4.40;2.07;;;23.60;64.30;;;;;;5052363;28;20473;-67
2022/05/22 06:09:41;;;;;;;4.43;2.03;;;23.50;63.30;;;;;;5051756;28;20515;-66
2022/05/22 06:12:10;;;;;;;4.90;2.20;;;23.60;62.60;;;;;;5051990;28;20512;-67
2022/05/22 06:14:37;;;;;;;7.80;2.17;;;23.40;62.90;;;;;;5051688;28;20453;-68
2022/05/22 06:17:04;;;;;;;6.10;2.50;;;23.40;63.10;;;;;;5051782;28;20465;-68
2022/05/22 06:22:16;;;;;;;10.30;2.40;;;23.60;64.10;;;;;;5051740;28;20452;-67
2022/05/22 06:24:44;;;;;;;4.87;2.20;;;23.70;64.20;;;;;;5051801;28;20504;-67
2022/05/22 06:27:13;;;;;;;8.17;2.67;;;23.50;65.00;;;;;;5051931;28;20477;-66
2022/05/22 06:29:40;;;;;;;4.93;2.83;;;23.30;67.00;;;;;;5051927;28;20462;-68
2022/05/22 06:32:08;;;;;;;4.57;2.00;;;23.50;67.80;;;;;;5051618;28;20493;-67
2022/05/22 06:34:36;;;;;;;9.60;3.00;;;23.60;66.30;;;;;;5051569;28;20460;-67
2022/05/22 06:37:05;;;;;;;5.67;2.00;;;23.50;65.60;;;;;;5051552;28;20553;-66
2022/05/22 06:42:21;;;;;;;4.83;1.70;;;23.40;66.00;;;;;;5051078;28;20845;-67
2022/05/22 06:44:52;;;;;;;4.40;1.93;;;23.40;66.20;;;;;;5051380;28;20454;-67
2022/05/22 06:47:19;;;;;;;8.90;2.23;;;23.50;66.10;;;;;;5051191;28;20976;-67
2022/05/22 06:49:46;;;;;;;5.40;1.87;;;23.60;66.10;;;;;;5051413;28;20449;-67
2022/05/22 06:52:14;;;;;;;5.90;2.20;;;23.60;65.90;;;;;;5050792;28;20497;-67
2022/05/22 06:54:41;;;;;;;7.10;2.13;;;23.60;66.60;;;;;;5051364;28;20472;-68
2022/05/22 06:57:08;;;;;;;6.73;2.20;;;23.60;67.00;;;;;;5051288;28;20453;-67
2022/05/22 06:59:36;;;;;;;6.33;2.33;;;23.60;67.80;;;;;;5051122;28;20540;-71
2022/05/22 07:02:04;;;;;;;6.07;2.23;;;23.70;68.20;;;;;;5051172;28;20516;-67
2022/05/22 07:04:32;;;;;;;6.50;2.50;;;23.80;67.10;;;;;;5050937;28;20946;-67
2022/05/22 07:06:59;;;;;;;5.67;1.80;;;23.80;67.40;;;;;;5051289;28;20454;-67
2022/05/22 07:09:27;;;;;;;5.73;2.10;;;23.90;67.80;;;;;;5050792;28;20454;-68
2022/05/22 07:11:55;;;;;;;4.30;2.10;;;23.90;68.70;;;;;;5050845;28;20986;-67
2022/05/22 07:14:23;;;;;;;5.67;2.20;;;23.90;68.50;;;;;;5050981;28;20540;-67
2022/05/22 07:16:52;;;;;;;8.47;2.90;;;24.00;68.60;;;;;;5050928;28;20533;-67
2022/05/22 07:19:19;;;;;;;7.67;3.00;;;24.00;69.00;;;;;;5050853;28;20454;-66
2022/05/22 07:21:47;;;;;;;5.97;2.47;;;24.10;68.90;;;;;;5050522;28;20573;-66
2022/05/22 07:24:14;;;;;;;5.80;2.20;;;24.10;69.30;;;;;;5050784;28;20456;-68
2022/05/22 07:26:42;;;;;;;5.60;1.93;;;24.20;69.50;;;;;;5050657;28;20457;-67
2022/05/22 07:29:09;;;;;;;4.00;1.60;;;24.10;69.90;;;;;;5050220;28;20465;-67
2022/05/22 07:31:38;;;;;;;7.23;2.17;;;24.10;68.70;;;;;;5050163;28;20477;-67
2022/05/22 07:34:07;;;;;;;4.40;2.07;;;24.20;68.30;;;;;;5050224;28;20441;-69
2022/05/22 07:36:35;;;;;;;5.77;2.47;;;24.30;68.00;;;;;;5050612;28;20441;-67
2022/05/22 07:39:02;;;;;;;5.30;2.33;;;24.10;68.20;;;;;;5050418;28;20462;-66
2022/05/22 07:41:30;;;;;;;6.23;2.67;;;24.10;68.50;;;;;;5050240;28;20493;-68
2022/05/22 07:43:57;;;;;;;4.83;1.87;;;24.20;69.20;;;;;;5050332;28;20446;-66
2022/05/22 07:46:25;;;;;;;7.17;2.30;;;24.30;70.10;;;;;;5050179;28;20965;-65
2022/05/22 07:48:52;;;;;;;5.80;2.47;;;24.40;70.10;;;;;;5050470;28;20450;-68
2022/05/22 07:51:21;;;;;;;5.33;2.27;;;24.50;70.80;;;;;;5050255;28;20561;-67
2022/05/22 07:53:48;;;;;;;4.70;2.17;;;24.60;72.00;;;;;;5049984;28;20496;-68
2022/05/22 07:56:16;;;;;;;5.03;2.20;;;24.70;70.20;;;;;;5050120;28;20806;-69
2022/05/22 07:58:43;;;;;;;7.10;2.00;;;24.80;71.00;;;;;;5050149;28;20533;-70
2022/05/22 08:01:11;;;;;;;7.10;2.87;;;24.90;70.30;;;;;;5050146;28;20477;-69
2022/05/22 08:03:39;;;;;;;6.10;2.03;;;25.00;69.60;;;;;;5050092;28;20592;-69
2022/05/22 08:06:06;;;;;;;6.07;2.30;;;25.20;71.30;;;;;;5049598;28;20450;-71
2022/05/22 08:08:34;;;;;;;7.33;2.57;;;25.20;70.00;;;;;;5049826;28;20453;-70
2022/05/22 08:11:01;;;;;;;7.50;3.20;;;25.20;70.80;;;;;;5049624;28;20477;-70
2022/05/22 08:13:29;;;;;;;9.53;2.67;;;25.20;72.20;;;;;;5049659;28;20485;-70
2022/05/22 08:15:56;;;;;;;4.80;2.40;;;25.20;69.60;;;;;;5049940;28;20795;-73
2022/05/22 08:18:23;;;;;;;7.50;2.20;;;25.00;69.90;;;;;;5053153;28;20460;-78
2022/05/22 08:20:50;;;;;;;6.30;2.57;;;24.80;71.00;;;;;;5052925;28;20493;-68
2022/05/22 08:23:20;;;;;;;4.80;2.60;;;24.80;72.40;;;;;;5049661;28;20458;-70
2022/05/22 08:25:50;;;;;;;6.00;2.20;;;24.80;72.80;;;;;;5049513;28;20449;-69
2022/05/22 08:28:17;;;;;;;5.10;2.47;;;24.80;72.60;;;;;;5049693;28;20797;-68
2022/05/22 08:30:44;;;;;;;11.93;2.50;;;24.80;73.60;;;;;;5049547;28;20943;-68
2022/05/22 08:33:12;;;;;;;6.93;2.87;;;24.90;73.90;;;;;;5049740;28;20490;-68
2022/05/22 08:35:42;;;;;;;5.57;2.30;;;25.00;74.20;;;;;;5049385;28;20473;-71
2022/05/22 08:38:10;;;;;;;5.67;2.50;;;25.20;73.20;;;;;;5049438;28;20459;-70
2022/05/22 08:40:58;;;;;;;6.23;2.40;;;25.00;71.80;;;;;;5048595;28;20883;-71
2022/05/22 08:43:33;;;;;;;6.43;2.40;;;24.80;72.20;;;;;;5049653;28;20453;-70
2022/05/22 08:46:06;;;;;;;5.93;2.60;;;24.60;73.80;;;;;;5049310;28;20945;-69
2022/05/22 08:48:35;;;;;;;8.73;2.30;;;24.60;75.60;;;;;;5049404;28;20450;-70
2022/05/22 08:51:03;;;;;;;5.43;2.50;;;24.80;74.90;;;;;;5049545;28;20465;-69
2022/05/22 08:53:36;;;;;;;5.33;2.60;;;25.00;75.80;;;;;;5049123;28;20807;-70
2022/05/22 08:59:03;;;;;;;6.53;2.53;;;24.90;74.90;;;;;;5049406;28;20434;-68
2022/05/22 09:01:44;;;;;;;10.13;2.60;;;24.90;76.80;;;;;;5049384;28;20974;-68
2022/05/22 09:04:29;;;;;;;6.27;2.43;;;24.80;77.70;;;;;;5049333;28;20553;-68
2022/05/22 09:07:06;;;;;;;9.30;3.13;;;24.50;77.70;;;;;;5049245;28;20457;-69
2022/05/22 09:09:38;;;;;;;7.23;3.33;;;24.40;79.20;;;;;;5049268;28;20440;-69
2022/05/22 09:12:30;;;;;;;4.87;2.70;;;24.30;79.00;;;;;;5049296;28;20563;-69
2022/05/22 09:15:05;;;;;;;7.17;2.70;;;24.10;79.40;;;;;;5049355;28;20457;-69
2022/05/22 09:17:37;;;;;;;5.30;2.30;;;23.90;80.40;;;;;;5049193;28;20812;-69
2022/05/22 09:20:10;;;;;;;6.77;2.60;;;23.60;80.30;;;;;;5049087;28;20452;-68
2022/05/22 09:22:48;;;;;;;6.57;2.73;;;23.60;81.30;;;;;;5049170;28;20485;-69
2022/05/22 09:25:23;;;;;;;7.93;3.13;;;23.60;82.20;;;;;;5049265;28;20450;-69
2022/05/22 09:28:01;;;;;;;4.30;2.00;;;23.70;81.40;;;;;;5048999;28;20476;-67
2022/05/22 09:30:34;;;;;;;8.50;2.30;;;23.60;82.00;;;;;;5048914;28;20469;-69
2022/05/22 09:33:11;;;;;;;7.03;2.70;;;23.80;80.70;;;;;;5049114;28;20560;-68
2022/05/22 09:35:50;;;;;;;4.90;2.80;;;23.90;81.40;;;;;;5048575;28;20453;-70
2022/05/22 09:38:38;;;;;;;6.23;2.73;;;24.00;81.60;;;;;;5049106;28;20829;-70
2022/05/22 09:41:15;;;;;;;5.43;2.60;;;24.20;81.30;;;;;;5048607;28;20580;-69
2022/05/22 09:44:08;;;;;;;7.27;2.50;;;24.50;79.80;;;;;;5049115;28;20961;-70
2022/05/22 09:46:54;;;;;;;5.20;2.40;;;24.60;80.00;;;;;;5048761;28;20450;-70
2022/05/22 09:49:40;;;;;;;4.80;2.37;;;24.90;79.80;;;;;;5048816;28;20946;-68
2022/05/22 09:52:12;;;;;;;7.93;2.80;;;24.80;79.10;;;;;;5049622;28;20474;-69
2022/05/22 09:54:57;;;;;;;4.70;2.10;;;25.00;78.40;;;;;;5052294;28;20504;-68
2022/05/22 09:57:40;;;;;;;5.73;1.90;;;25.00;74.50;;;;;;5052355;28;20453;-68
2022/05/22 10:00:11;;;;;;;4.77;2.07;;;25.40;74.20;;;;;;5051960;28;20456;-67
2022/05/22 10:02:47;;;;;;;4.50;1.80;;;25.50;73.40;;;;;;5052377;28;20477;-68
2022/05/22 10:05:30;;;;;;;4.70;1.90;;;25.50;74.20;;;;;;5052341;28;20458;-69
2022/05/22 10:08:11;;;;;;;4.70;2.17;;;25.80;73.00;;;;;;5052292;28;20493;-70
2022/05/22 10:10:44;;;;;;;5.57;2.20;;;25.90;72.90;;;;;;5052054;28;20806;-70
2022/05/22 10:13:21;;;;;;;7.60;2.73;;;26.20;72.40;;;;;;5052100;28;20547;-68
2022/05/22 10:16:02;;;;;;;6.63;2.50;;;26.50;71.70;;;;;;5051901;28;20453;-69
2022/05/22 10:18:48;;;;;;;4.37;1.83;;;26.70;71.80;;;;;;5052043;28;20458;-67
2022/05/22 10:21:24;;;;;;;11.80;2.10;;;27.10;71.40;;;;;;5051947;28;20474;-68
2022/05/22 10:24:17;;;;;;;4.53;1.90;;;27.60;69.70;;;;;;5051435;28;20457;-68
2022/05/22 10:26:59;;;;;;;5.17;2.10;;;27.50;68.50;;;;;;5051714;28;20442;-68
2022/05/22 10:29:33;;;;;;;5.03;1.87;;;27.40;68.50;;;;;;5051341;28;20449;-69
2022/05/22 10:32:09;;;;;;;5.00;2.20;;;27.20;68.60;;;;;;5051543;28;20466;-67
2022/05/22 10:34:44;;;;;;;7.83;2.20;;;27.20;71.50;;;;;;5051573;28;20485;-68
2022/05/22 10:37:18;;;;;;;5.97;2.53;;;27.10;68.40;;;;;;5051631;28;20465;-67
2022/05/22 10:39:46;;;;;;;7.87;2.33;;;27.20;68.10;;;;;;5051723;28;20453;-69
2022/05/22 10:45:07;;;;;;;5.50;2.03;;;26.70;69.40;;;;;;5051530;28;20830;-69
2022/05/22 10:47:36;;;;;;;5.73;2.30;;;26.40;69.80;;;;;;5051139;28;20469;-69
2022/05/22 10:50:17;;;;;;;4.47;2.00;;;26.40;70.80;;;;;;5051495;28;20519;-69
2022/05/22 10:52:45;;;;;;;6.70;2.93;;;26.40;70.50;;;;;;5051328;28;20473;-69
2022/05/22 10:55:26;;;;;;;5.77;2.60;;;26.40;70.80;;;;;;5051441;28;20454;-68
2022/05/22 10:57:58;;;;;;;7.33;2.20;;;26.70;70.20;;;;;;5051255;28;20537;-68
2022/05/22 11:00:27;;;;;;;6.17;2.60;;;26.80;68.60;;;;;;5051110;28;20904;-69
2022/05/22 11:02:55;;;;;;;6.80;2.53;;;27.00;68.10;;;;;;5051221;28;20474;-70
2022/05/22 11:05:26;;;;;;;5.07;2.53;;;27.00;68.90;;;;;;5050308;28;20456;-68
2022/05/22 11:07:55;;;;;;;7.80;2.90;;;26.80;68.30;;;;;;5050978;28;20453;-71
2022/05/22 11:10:25;;;;;;;6.00;2.27;;;26.70;68.70;;;;;;5050726;28;20450;-68
2022/05/22 11:13:05;;;;;;;4.40;2.33;;;27.00;69.00;;;;;;5050792;28;20481;-70
2022/05/22 11:15:34;;;;;;;4.83;2.00;;;27.50;68.60;;;;;;5050937;28;20458;-69
2022/05/22 11:18:11;;;;;;;4.90;2.20;;;27.90;66.60;;;;;;5050909;28;20462;-68
2022/05/22 11:20:45;;;;;;;6.33;2.57;;;27.90;66.60;;;;;;5050552;28;20536;-70
2022/05/22 11:23:42;;;;;;;4.30;2.20;;;27.90;68.00;;;;;;5050709;28;21018;-69
2022/05/22 11:26:23;;;;;;;4.40;2.00;;;27.80;68.60;;;;;;5050857;28;20446;-68
2022/05/22 11:29:05;;;;;;;4.87;2.10;;;27.90;70.00;;;;;;5050220;28;20553;-69
2022/05/22 11:32:00;;;;;;;5.50;2.00;;;28.30;70.30;;;;;;5050514;28;20470;-68
2022/05/22 11:34:59;;;;;;;4.47;2.20;;;28.30;67.80;;;;;;5050514;28;20521;-68
2022/05/22 11:37:38;;;;;;;5.07;2.53;;;28.60;68.20;;;;;;5050518;28;20819;-70
2022/05/22 11:40:30;;;;;;;5.73;2.47;;;28.50;66.70;;;;;;5050470;28;20462;-69
2022/05/22 11:43:09;;;;;;;7.93;2.30;;;28.50;68.30;;;;;;5049965;28;20561;-70
2022/05/22 11:45:45;;;;;;;5.07;2.33;;;28.80;70.10;;;;;;5050093;28;20457;-69
2022/05/22 11:48:38;;;;;;;6.20;2.50;;;28.50;66.80;;;;;;5050028;28;20825;-68
2022/05/22 11:51:23;;;;;;;5.60;2.60;;;27.90;68.10;;;;;;5049807;28;20473;-68
2022/05/22 11:54:18;;;;;;;7.47;2.40;;;27.70;68.90;;;;;;5049780;28;21001;-69
2022/05/22 11:57:00;;;;;;;9.63;2.97;;;27.60;67.90;;;;;;5050166;28;20485;-67
2022/05/22 11:59:51;;;;;;;6.07;2.50;;;27.00;66.80;;;;;;5049804;28;20458;-69
2022/05/22 12:02:27;;;;;;;4.23;2.07;;;26.40;68.70;;;;;;5049881;28;20484;-68
2022/05/22 12:05:22;;;;;;;4.73;2.00;;;26.00;69.70;;;;;;5049983;28;20463;-69
2022/05/22 12:08:17;;;;;;;6.13;2.13;;;25.70;70.70;;;;;;5050172;28;20534;-69
2022/05/22 12:10:49;;;;;;;5.00;2.90;;;25.60;71.10;;;;;;5049706;28;20450;-68
2022/05/22 12:13:27;;;;;;;4.87;2.70;;;25.50;71.20;;;;;;5049917;28;20481;-69
2022/05/22 12:16:00;;;;;;;6.50;2.40;;;25.70;71.70;;;;;;5048901;28;20481;-70
2022/05/22 12:18:57;;;;;;;4.53;2.53;;;25.80;71.20;;;;;;5049477;28;20453;-69
2022/05/22 12:21:31;;;;;;;4.50;2.20;;;25.80;70.20;;;;;;5043365;28;20516;-70
2022/05/22 12:24:08;;;;;;;4.50;2.07;;;25.80;70.70;;;;;;5049655;28;20806;-68
2022/05/22 12:26:36;;;;;;;4.67;2.77;;;25.80;71.00;;;;;;5049799;28;20479;-68
2022/05/22 12:29:08;;;;;;;4.83;2.57;;;25.80;71.80;;;;;;5049505;28;20449;-69
2022/05/22 12:31:42;;;;;;;4.10;2.20;;;25.70;72.10;;;;;;5049639;28;20890;-69
2022/05/22 12:34:13;;;;;;;4.07;1.90;;;25.60;73.10;;;;;;5049176;28;20500;-70
2022/05/22 12:36:45;;;;;;;5.07;2.40;;;25.50;73.30;;;;;;5049775;28;20533;-69
2022/05/22 12:39:17;;;;;;;7.73;2.60;;;25.30;74.10;;;;;;5049663;28;20462;-68
2022/05/22 12:42:00;;;;;;;4.80;2.57;;;25.00;74.20;;;;;;5049336;28;20887;-68
2022/05/22 12:44:28;;;;;;;5.23;2.77;;;24.80;74.70;;;;;;5049445;28;20453;-68
2022/05/22 12:46:56;;;;;;;6.63;2.83;;;24.80;75.60;;;;;;5049630;28;20572;-69
2022/05/22 12:49:26;;;;;;;8.50;2.50;;;25.00;75.80;;;;;;5049406;28;20481;-68
2022/05/22 12:52:02;;;;;;;4.70;2.70;;;24.90;76.30;;;;;;5049085;28;20838;-69
2022/05/22 12:54:32;;;;;;;4.63;3.03;;;24.80;75.30;;;;;;5049359;28;20496;-67
2022/05/22 12:57:17;;;;;;;5.83;3.00;;;24.80;76.60;;;;;;5049497;28;20453;-71
2022/05/22 12:59:53;;;;;;;4.80;2.73;;;24.90;77.10;;;;;;5049477;28;20454;-70
2022/05/22 13:02:36;;;;;;;4.40;2.30;;;24.80;78.00;;;;;;5049135;28;20473;-68
2022/05/22 13:05:12;;;;;;;4.10;2.17;;;24.30;77.70;;;;;;5049381;28;20453;-69
2022/05/22 13:07:40;;;;;;;5.40;2.60;;;24.10;79.80;;;;;;5049291;28;20450;-70
2022/05/22 13:10:25;;;;;;;8.20;2.57;;;24.00;79.70;;;;;;5048947;28;20942;-68
2022/05/22 13:12:56;;;;;;;5.40;2.57;;;23.60;80.50;;;;;;5049218;28;20470;-71
2022/05/22 13:15:26;;;;;;;4.83;2.53;;;23.30;80.70;;;;;;5049024;28;20494;-66
2022/05/22 13:18:12;;;;;;;4.70;2.50;;;23.40;81.20;;;;;;5049213;28;20454;-69
2022/05/22 13:20:52;;;;;;;6.00;2.73;;;23.20;81.30;;;;;;5049300;28;21020;-68
2022/05/22 13:23:33;;;;;;;8.50;3.13;;;23.20;81.40;;;;;;5049182;28;20474;-71
2022/05/22 13:26:05;;;;;;;5.03;2.80;;;23.20;82.50;;;;;;5049119;28;20453;-71